Time;durP1;ratioP1;P1;durP2;ratioP2;P2;SDS_P1;SDS_P2;PMS_P1;PMS_P2;Temp;Humidity;BMP_temperature;BMP_pressure;BME280_temperature;BME280_humidity;BME280_pressure;Samples;Min_cycle;Max_cycle;Signal;HPM_P1;HPM_P2
2022/11/03 00:02:00;;;;;;;25.35;15.00;;;4.10;99.90;;;;;;5088547;28;20511;-77
2022/11/03 00:04:25;;;;;;;26.33;14.68;;;4.00;99.90;;;;;;5073455;28;20456;-76
2022/11/03 00:06:53;;;;;;;28.05;15.75;;;4.00;99.90;;;;;;5073418;28;20062;-76
2022/11/03 00:09:20;;;;;;;32.20;16.13;;;4.00;99.90;;;;;;5073306;28;20086;-76
2022/11/03 00:11:47;;;;;;;28.23;14.68;;;3.90;99.90;;;;;;5088228;28;20093;-77
2022/11/03 00:14:13;;;;;;;26.65;14.40;;;3.90;99.90;;;;;;5109128;28;20035;-75
2022/11/03 00:16:39;;;;;;;25.80;14.30;;;3.90;99.90;;;;;;5093598;28;20385;-77
2022/11/03 00:19:06;;;;;;;28.70;15.80;;;3.80;99.90;;;;;;5109237;28;20023;-76
2022/11/03 00:21:32;;;;;;;26.05;15.15;;;3.80;99.90;;;;;;5093410;28;20027;-76
2022/11/03 00:23:58;;;;;;;22.08;14.73;;;3.70;99.90;;;;;;5092139;28;20028;-75
2022/11/03 00:26:25;;;;;;;26.52;15.15;;;3.60;99.90;;;;;;5108987;28;20023;-75
2022/11/03 00:28:53;;;;;;;28.70;15.82;;;3.60;99.90;;;;;;5088657;28;20012;-75
2022/11/03 00:31:29;;;;;;;31.83;17.02;;;3.50;99.90;;;;;;5094740;28;20024;-75
2022/11/03 00:33:55;;;;;;;26.65;15.23;;;3.50;99.90;;;;;;5109093;28;20016;-75
2022/11/03 00:36:26;;;;;;;28.98;17.60;;;3.50;99.90;;;;;;5093348;28;20504;-76
2022/11/03 00:38:52;;;;;;;26.90;15.15;;;3.50;99.90;;;;;;5093526;28;20028;-75
2022/11/03 00:41:21;;;;;;;22.90;15.10;;;3.40;99.90;;;;;;5093058;28;20147;-75
2022/11/03 00:43:48;;;;;;;27.02;15.95;;;3.40;99.90;;;;;;5093282;28;20024;-76
2022/11/03 00:46:15;;;;;;;21.90;13.73;;;3.30;99.90;;;;;;5093208;28;20035;-75
2022/11/03 00:48:41;;;;;;;24.13;15.00;;;3.20;99.90;;;;;;5106895;28;20143;-76
2022/11/03 00:51:13;;;;;;;31.55;17.35;;;3.20;99.90;;;;;;5071655;28;20123;-77
2022/11/03 00:53:45;;;;;;;38.45;19.75;;;3.20;99.90;;;;;;5072887;28;20389;-75
2022/11/03 00:56:15;;;;;;;31.40;19.67;;;3.20;99.90;;;;;;5071622;28;20020;-75
2022/11/03 00:58:41;;;;;;;32.85;19.48;;;3.20;99.90;;;;;;5071114;28;20024;-75
2022/11/03 01:01:12;;;;;;;32.13;18.65;;;3.10;99.90;;;;;;5071521;28;20025;-75
2022/11/03 01:03:40;;;;;;;36.15;16.63;;;3.10;99.90;;;;;;5072856;28;20060;-77
2022/11/03 01:08:51;;;;;;;26.08;14.50;;;3.00;99.90;;;;;;5072844;28;20533;-75
2022/11/03 01:14:06;;;;;;;24.58;14.20;;;3.00;99.90;;;;;;5073798;28;20036;-75
2022/11/03 01:16:32;;;;;;;28.02;13.90;;;3.00;99.90;;;;;;5076628;28;20047;-75
2022/11/03 01:18:58;;;;;;;25.67;14.07;;;3.00;99.90;;;;;;5075094;28;20474;-75
2022/11/03 01:21:24;;;;;;;24.42;13.88;;;2.90;99.90;;;;;;5076522;28;20028;-75
2022/11/03 01:23:50;;;;;;;21.77;13.70;;;2.90;99.90;;;;;;5076284;28;20017;-76
2022/11/03 01:26:16;;;;;;;30.00;14.38;;;2.90;99.90;;;;;;5076414;28;20033;-76
2022/11/03 01:28:44;;;;;;;26.05;13.68;;;2.80;99.90;;;;;;5094173;28;20028;-77
2022/11/03 01:31:19;;;;;;;23.48;15.05;;;2.70;99.90;;;;;;5086463;28;20036;-76
2022/11/03 01:33:45;;;;;;;30.02;14.25;;;2.70;99.90;;;;;;5076284;28;20048;-76
2022/11/03 01:36:13;;;;;;;22.50;15.85;;;2.60;99.90;;;;;;5076180;28;20028;-75
2022/11/03 01:38:39;;;;;;;27.67;14.27;;;2.60;99.90;;;;;;5076105;28;20028;-75
2022/11/03 01:41:07;;;;;;;27.77;14.55;;;2.50;99.90;;;;;;5074623;28;20060;-75
2022/11/03 01:43:33;;;;;;;25.15;14.00;;;2.50;99.90;;;;;;5074747;28;20029;-75
2022/11/03 01:46:17;;;;;;;23.58;14.43;;;2.50;99.90;;;;;;5076026;28;20027;-75
2022/11/03 01:48:53;;;;;;;34.63;16.13;;;2.50;99.90;;;;;;5074583;28;20115;-75
2022/11/03 01:51:22;;;;;;;39.72;17.88;;;2.50;99.90;;;;;;5076033;28;20393;-75
2022/11/03 01:53:51;;;;;;;52.17;17.40;;;2.50;99.90;;;;;;5074434;28;20024;-75
2022/11/03 01:56:17;;;;;;;37.83;18.05;;;2.50;99.90;;;;;;5074543;28;20063;-76
2022/11/03 01:58:48;;;;;;;36.20;16.98;;;2.40;99.90;;;;;;5074028;28;20024;-77
2022/11/03 02:01:14;;;;;;;35.22;15.80;;;2.40;99.90;;;;;;5075912;28;20528;-76
2022/11/03 02:03:45;;;;;;;29.20;15.55;;;2.40;99.90;;;;;;5075605;28;20387;-76
2022/11/03 02:06:11;;;;;;;27.25;15.60;;;2.40;99.90;;;;;;5075686;28;20035;-76
2022/11/03 02:08:51;;;;;;;31.73;16.80;;;2.40;99.90;;;;;;5075572;28;20017;-75
2022/11/03 02:14:01;;;;;;;35.00;17.25;;;2.40;99.90;;;;;;5075652;28;20044;-75
2022/11/03 02:16:29;;;;;;;42.95;17.38;;;2.40;99.90;;;;;;5074214;28;20028;-76
2022/11/03 02:18:58;;;;;;;37.63;14.43;;;2.30;99.90;;;;;;5073951;28;20032;-76
2022/11/03 02:21:34;;;;;;;35.00;14.90;;;2.20;99.90;;;;;;5075317;28;20020;-76
2022/11/03 02:24:22;;;;;;;35.80;15.10;;;2.20;99.90;;;;;;5075141;28;20025;-76
2022/11/03 02:26:52;;;;;;;34.80;16.17;;;2.10;99.90;;;;;;5077627;28;20359;-75
2022/11/03 02:29:18;;;;;;;41.08;18.08;;;2.00;99.90;;;;;;5093972;28;20075;-76
2022/11/03 02:31:57;;;;;;;35.80;17.85;;;2.00;99.90;;;;;;5080365;28;20417;-76
2022/11/03 02:34:38;;;;;;;40.85;19.30;;;2.00;99.90;;;;;;5075024;28;20470;-76
2022/11/03 02:37:11;;;;;;;32.50;16.67;;;2.00;99.90;;;;;;5075112;28;20051;-76
2022/11/03 02:39:42;;;;;;;39.25;17.70;;;2.00;99.90;;;;;;5073449;28;20048;-75
2022/11/03 02:42:10;;;;;;;41.22;18.30;;;2.00;99.90;;;;;;5073825;28;20035;-76
2022/11/03 02:44:37;;;;;;;36.17;17.35;;;1.90;99.90;;;;;;5074829;28;20025;-75
2022/11/03 02:47:08;;;;;;;32.22;16.60;;;1.80;99.90;;;;;;5074946;28;20025;-76
2022/11/03 02:49:46;;;;;;;28.45;14.80;;;1.80;99.90;;;;;;5074719;28;20032;-76
2022/11/03 02:52:38;;;;;;;36.55;15.70;;;1.70;99.90;;;;;;5084827;28;20020;-75
2022/11/03 02:55:08;;;;;;;27.80;15.73;;;1.70;99.90;;;;;;5095095;28;20481;-75
2022/11/03 02:57:38;;;;;;;32.20;16.30;;;1.70;99.90;;;;;;5093665;28;20357;-76
2022/11/03 03:00:06;;;;;;;28.60;16.40;;;1.70;99.90;;;;;;5093457;28;20024;-74
2022/11/03 03:02:41;;;;;;;29.92;16.08;;;1.70;99.90;;;;;;5094791;28;20017;-76
2022/11/03 03:05:10;;;;;;;29.20;15.82;;;1.70;99.90;;;;;;5093520;28;20031;-74
2022/11/03 03:07:42;;;;;;;28.20;16.10;;;1.60;99.90;;;;;;5110530;28;20119;-75
2022/11/03 03:10:14;;;;;;;28.15;15.13;;;1.60;99.90;;;;;;5093298;28;20028;-75
2022/11/03 03:12:48;;;;;;;34.90;16.35;;;1.60;99.90;;;;;;5094325;28;20036;-75
2022/11/03 03:15:15;;;;;;;29.83;14.48;;;1.60;99.90;;;;;;5110268;28;20024;-76
2022/11/03 03:17:49;;;;;;;29.83;14.18;;;1.50;99.90;;;;;;5094657;28;20020;-74
2022/11/03 03:20:31;;;;;;;34.20;15.80;;;1.50;99.90;;;;;;5110188;28;20543;-74
2022/11/03 03:23:08;;;;;;;30.65;15.60;;;1.40;99.90;;;;;;5094457;28;20359;-75
2022/11/03 03:25:38;;;;;;;26.63;15.23;;;1.30;99.90;;;;;;5094459;28;20471;-75
2022/11/03 03:28:07;;;;;;;30.77;14.88;;;1.30;99.90;;;;;;5079229;28;20106;-75
2022/11/03 03:30:35;;;;;;;32.33;17.50;;;1.30;99.90;;;;;;5072537;28;20024;-74
2022/11/03 03:33:03;;;;;;;32.78;15.93;;;1.30;99.90;;;;;;5089444;28;20451;-75
2022/11/03 03:35:31;;;;;;;31.90;15.05;;;1.30;99.90;;;;;;5089395;28;20039;-76
2022/11/03 03:38:02;;;;;;;32.05;16.92;;;1.30;99.90;;;;;;5071905;28;20074;-75
2022/11/03 03:40:38;;;;;;;32.30;16.90;;;1.30;99.90;;;;;;5089173;28;20039;-76
2022/11/03 03:43:07;;;;;;;30.25;18.08;;;1.30;99.90;;;;;;5073876;28;20020;-75
2022/11/03 03:45:34;;;;;;;27.13;15.43;;;1.20;99.90;;;;;;5072452;28;20377;-75
2022/11/03 03:47:59;;;;;;;25.88;15.20;;;1.20;99.90;;;;;;5073665;28;20052;-75
2022/11/03 03:50:28;;;;;;;21.08;12.73;;;1.10;99.90;;;;;;5073537;28;20071;-75
2022/11/03 03:52:59;;;;;;;25.45;13.88;;;1.00;99.90;;;;;;5073811;28;20017;-76
2022/11/03 03:55:33;;;;;;;33.45;13.95;;;1.00;99.90;;;;;;5073430;28;20040;-75
2022/11/03 03:57:59;;;;;;;29.17;16.15;;;1.10;99.90;;;;;;5072270;28;20016;-75
2022/11/03 04:00:25;;;;;;;36.53;16.58;;;1.10;99.90;;;;;;5088873;28;20085;-75
2022/11/03 04:02:50;;;;;;;33.40;15.82;;;1.20;99.90;;;;;;5072183;28;20017;-77
2022/11/03 04:05:16;;;;;;;26.83;14.80;;;1.20;99.90;;;;;;5073295;28;20050;-74
2022/11/03 04:07:47;;;;;;;35.17;16.55;;;1.20;99.90;;;;;;5072066;28;20016;-75
2022/11/03 04:10:18;;;;;;;58.17;19.98;;;1.20;99.90;;;;;;5073339;28;20037;-76
2022/11/03 04:23:43;;;;;;;48.35;19.35;;;1.40;99.90;;;;;;5073651;28;20044;-76
2022/11/03 04:26:14;;;;;;;77.50;21.45;;;1.40;99.90;;;;;;5073115;28;20025;-76
2022/11/03 04:28:41;;;;;;;38.90;18.98;;;1.40;99.90;;;;;;5068503;28;20554;-75
2022/11/03 04:31:11;;;;;;;46.42;18.77;;;1.40;99.90;;;;;;5062038;28;20045;-76
2022/11/03 04:33:37;;;;;;;52.60;20.90;;;1.40;99.90;;;;;;5073216;28;20032;-75
2022/11/03 04:36:28;;;;;;;85.47;21.83;;;1.40;99.90;;;;;;5071803;28;20549;-75
2022/11/03 04:38:54;;;;;;;61.58;18.48;;;1.30;99.90;;;;;;5071433;28;20028;-75
2022/11/03 04:41:27;;;;;;;75.88;21.98;;;1.20;99.90;;;;;;5072896;28;20048;-76
2022/11/03 04:43:53;;;;;;;44.38;17.80;;;1.20;99.90;;;;;;5073146;28;20017;-74
2022/11/03 04:46:25;;;;;;;45.30;18.00;;;1.20;99.90;;;;;;5072919;28;20090;-74
2022/11/03 04:48:57;;;;;;;48.50;18.17;;;1.20;99.90;;;;;;5073795;28;20073;-76
2022/11/03 04:51:27;;;;;;;42.90;17.88;;;1.20;99.90;;;;;;5092772;28;20142;-74
2022/11/03 04:54:00;;;;;;;54.28;18.73;;;1.20;99.90;;;;;;5077026;28;20029;-76
2022/11/03 04:56:26;;;;;;;63.45;17.63;;;1.10;99.90;;;;;;5092595;28;20475;-75
2022/11/03 04:58:52;;;;;;;85.95;19.80;;;1.10;99.90;;;;;;5076850;28;20031;-75
2022/11/03 05:01:21;;;;;;;120.80;23.25;;;1.10;99.90;;;;;;5076788;28;20035;-75
2022/11/03 05:03:49;;;;;;;48.67;18.00;;;1.10;99.90;;;;;;5076911;28;20024;-75
2022/11/03 05:06:16;;;;;;;65.38;20.48;;;1.10;99.90;;;;;;5076762;28;20025;-75
2022/11/03 05:08:45;;;;;;;47.50;18.45;;;1.00;99.90;;;;;;5076759;28;20059;-76
2022/11/03 05:11:17;;;;;;;51.58;18.08;;;1.00;99.90;;;;;;5091853;28;20085;-76
2022/11/03 05:13:43;;;;;;;42.17;17.30;;;1.00;99.90;;;;;;5076654;28;20013;-74
2022/11/03 05:16:09;;;;;;;55.53;18.90;;;1.00;99.90;;;;;;5076403;28;20024;-75
2022/11/03 05:18:37;;;;;;;48.30;19.52;;;1.00;99.90;;;;;;5075281;28;20021;-76
2022/11/03 05:21:16;;;;;;;41.72;19.45;;;0.90;99.90;;;;;;5076323;28;20017;-75
2022/11/03 05:23:53;;;;;;;45.55;19.20;;;1.00;99.90;;;;;;5075145;28;20021;-76
2022/11/03 05:26:21;;;;;;;44.08;19.40;;;0.90;99.90;;;;;;5077337;28;20032;-74
2022/11/03 05:28:54;;;;;;;42.30;20.23;;;0.90;99.90;;;;;;5112272;28;20385;-75
2022/11/03 05:31:26;;;;;;;43.95;17.27;;;0.80;99.90;;;;;;5110868;28;20036;-76
2022/11/03 05:33:55;;;;;;;55.22;17.10;;;0.80;99.90;;;;;;5096492;28;20024;-75
2022/11/03 05:36:27;;;;;;;57.92;16.70;;;0.80;99.90;;;;;;5096463;28;20024;-76
2022/11/03 05:38:57;;;;;;;40.00;17.13;;;0.80;99.90;;;;;;5096388;28;20061;-76
2022/11/03 05:41:29;;;;;;;44.42;17.52;;;0.80;99.90;;;;;;5095232;28;20510;-74
2022/11/03 05:44:13;;;;;;;41.50;18.33;;;0.90;99.90;;;;;;5095048;28;20134;-74
2022/11/03 05:46:39;;;;;;;33.20;16.73;;;0.90;99.90;;;;;;5096296;28;20065;-75
2022/11/03 05:49:06;;;;;;;42.53;18.92;;;0.80;99.90;;;;;;5094891;28;20032;-75
2022/11/03 05:51:35;;;;;;;43.83;17.92;;;0.80;99.90;;;;;;5087771;28;20028;-75
2022/11/03 05:54:03;;;;;;;38.20;18.55;;;0.80;99.90;;;;;;5075917;28;20379;-75
2022/11/03 05:56:31;;;;;;;42.38;18.30;;;0.80;99.90;;;;;;5075606;28;20844;-75
2022/11/03 05:58:58;;;;;;;37.60;18.45;;;0.80;99.90;;;;;;5091159;28;20398;-74
2022/11/03 06:01:29;;;;;;;35.15;18.42;;;0.90;99.90;;;;;;5090462;28;20019;-76
2022/11/03 06:03:55;;;;;;;37.47;16.70;;;1.00;99.90;;;;;;5075601;28;20029;-74
2022/11/03 06:06:38;;;;;;;38.50;19.73;;;1.00;99.90;;;;;;5075200;28;20023;-76
2022/11/03 06:09:18;;;;;;;43.72;16.88;;;1.10;99.90;;;;;;5074901;28;20126;-76
2022/11/03 06:11:44;;;;;;;44.15;18.75;;;1.20;99.90;;;;;;5074572;28;20027;-75
2022/11/03 06:14:26;;;;;;;44.65;19.50;;;1.20;99.90;;;;;;5075464;28;20035;-74
2022/11/03 06:16:57;;;;;;;46.20;19.20;;;1.30;99.90;;;;;;5075448;28;20025;-76
2022/11/03 06:19:27;;;;;;;53.15;19.70;;;1.30;99.90;;;;;;5075550;28;20437;-75
2022/11/03 06:21:57;;;;;;;64.63;20.02;;;1.40;99.90;;;;;;5075286;28;20028;-76
2022/11/03 06:24:29;;;;;;;41.08;17.85;;;1.50;99.90;;;;;;5074002;28;20501;-76
2022/11/03 06:26:56;;;;;;;33.00;17.80;;;1.60;99.90;;;;;;5079641;28;20036;-76
2022/11/03 06:29:22;;;;;;;34.92;16.02;;;1.60;99.90;;;;;;5095201;28;20016;-76
2022/11/03 06:31:52;;;;;;;33.22;17.08;;;1.70;99.90;;;;;;5078132;28;20017;-76
2022/11/03 06:34:32;;;;;;;52.72;20.02;;;1.70;99.90;;;;;;5075257;28;20436;-75
2022/11/03 06:37:04;;;;;;;50.55;18.23;;;1.90;99.90;;;;;;5075001;28;20100;-75
2022/11/03 06:39:30;;;;;;;57.63;19.35;;;1.90;99.90;;;;;;5074763;28;20078;-76
2022/11/03 06:41:55;;;;;;;70.97;20.48;;;1.90;99.90;;;;;;5074859;28;20052;-76
2022/11/03 06:44:23;;;;;;;48.35;19.45;;;2.00;99.90;;;;;;5074855;28;20029;-77
2022/11/03 06:46:50;;;;;;;58.85;22.55;;;2.10;99.90;;;;;;5073061;28;20052;-77
2022/11/03 06:49:33;;;;;;;74.35;25.27;;;2.10;99.90;;;;;;5073494;28;20032;-76
2022/11/03 06:52:15;;;;;;;59.47;24.83;;;2.20;99.90;;;;;;5073202;28;20021;-76
2022/11/03 06:54:41;;;;;;;62.80;24.13;;;2.30;99.90;;;;;;5074050;28;20016;-76
2022/11/03 06:57:12;;;;;;;63.33;26.27;;;2.40;99.90;;;;;;5073143;28;20094;-76
2022/11/03 06:59:38;;;;;;;63.53;23.93;;;2.50;99.90;;;;;;5073297;28;20040;-75
2022/11/03 07:02:44;;;;;;;58.60;23.75;;;2.60;99.90;;;;;;5073276;28;20258;-77
2022/11/03 07:05:19;;;;;;;81.53;26.77;;;2.60;99.90;;;;;;5090009;28;20032;-76
2022/11/03 07:07:45;;;;;;;72.90;25.67;;;2.70;99.90;;;;;;5082210;28;20073;-76
2022/11/03 07:10:11;;;;;;;73.30;24.75;;;2.70;99.90;;;;;;5110429;28;20028;-75
2022/11/03 07:12:37;;;;;;;60.25;25.00;;;2.80;99.90;;;;;;5093540;28;20031;-77
2022/11/03 07:15:12;;;;;;;60.85;25.13;;;2.90;99.90;;;;;;5094856;28;20020;-76
2022/11/03 07:17:38;;;;;;;86.18;26.33;;;3.10;99.90;;;;;;5094569;28;20020;-76
2022/11/03 07:20:15;;;;;;;111.75;29.17;;;3.20;99.90;;;;;;5093296;28;20039;-76
2022/11/03 07:22:41;;;;;;;107.53;33.10;;;3.30;99.90;;;;;;5105049;28;20442;-76
2022/11/03 07:25:19;;;;;;;113.85;37.33;;;3.30;99.90;;;;;;5070543;28;20021;-77
2022/11/03 07:27:47;;;;;;;76.85;28.17;;;3.40;99.90;;;;;;5084246;28;20031;-77
2022/11/03 07:30:19;;;;;;;112.38;34.25;;;3.50;99.90;;;;;;5104594;28;20043;-77
2022/11/03 07:32:46;;;;;;;63.85;25.77;;;3.50;99.90;;;;;;5071635;28;20032;-77
2022/11/03 07:35:29;;;;;;;72.13;29.17;;;3.60;99.90;;;;;;5073723;28;20028;-76
2022/11/03 07:37:56;;;;;;;62.13;27.02;;;3.80;99.90;;;;;;5073744;28;20501;-77
2022/11/03 07:40:24;;;;;;;67.03;28.05;;;3.80;99.90;;;;;;5072140;28;20094;-77
2022/11/03 07:42:50;;;;;;;59.83;26.80;;;4.00;99.90;;;;;;5072414;28;20016;-76
2022/11/03 07:45:40;;;;;;;89.70;34.45;;;4.10;99.90;;;;;;5072326;28;20493;-76
2022/11/03 07:48:43;;;;;;;113.72;37.38;;;4.20;99.90;;;;;;5072338;28;20035;-77
2022/11/03 07:51:25;;;;;;;64.65;31.17;;;4.40;99.90;;;;;;5066824;28;20087;-76
2022/11/03 07:53:54;;;;;;;70.40;30.80;;;4.50;99.90;;;;;;5088938;28;20086;-76
2022/11/03 07:56:26;;;;;;;73.18;32.55;;;4.70;99.90;;;;;;5073454;28;20016;-77
2022/11/03 07:58:59;;;;;;;55.58;26.45;;;4.90;99.90;;;;;;5089025;28;20554;-76
2022/11/03 08:01:28;;;;;;;66.85;31.00;;;5.10;99.90;;;;;;5073076;28;20021;-76
2022/11/03 08:04:03;;;;;;;62.25;30.63;;;5.30;99.90;;;;;;5073364;28;20526;-76
2022/11/03 08:06:28;;;;;;;78.57;37.28;;;5.50;99.90;;;;;;5072243;28;20021;-77
2022/11/03 08:08:54;;;;;;;69.97;36.47;;;5.70;99.90;;;;;;5071815;28;20036;-76
2022/11/03 08:11:21;;;;;;;67.18;35.28;;;5.80;99.90;;;;;;5072063;28;20063;-76
2022/11/03 08:13:48;;;;;;;71.57;35.13;;;6.10;99.90;;;;;;5073142;28;20028;-76
2022/11/03 08:16:13;;;;;;;79.55;37.08;;;6.20;99.90;;;;;;5071150;28;20019;-77
2022/11/03 08:18:39;;;;;;;76.60;38.88;;;6.40;99.90;;;;;;5071242;28;20025;-77
2022/11/03 08:21:05;;;;;;;70.47;36.63;;;6.60;99.90;;;;;;5071549;28;20056;-76
2022/11/03 08:23:30;;;;;;;74.90;38.80;;;6.80;99.90;;;;;;5071784;28;20027;-77
2022/11/03 08:25:56;;;;;;;67.43;35.85;;;6.90;99.90;;;;;;5071220;28;20494;-76
2022/11/03 08:28:21;;;;;;;66.72;35.78;;;7.10;99.90;;;;;;5090162;28;20023;-78
2022/11/03 08:30:47;;;;;;;66.88;36.72;;;7.20;99.90;;;;;;5082255;28;20067;-77
2022/11/03 08:33:13;;;;;;;62.80;32.60;;;7.40;99.90;;;;;;5091126;28;20104;-77
2022/11/03 08:35:38;;;;;;;62.13;32.13;;;7.60;99.90;;;;;;5091632;28;20385;-77
2022/11/03 08:38:04;;;;;;;62.60;32.33;;;7.70;99.90;;;;;;5091461;28;20025;-77
2022/11/03 08:40:29;;;;;;;61.92;31.75;;;7.90;99.90;;;;;;5091387;28;20052;-77
2022/11/03 08:42:55;;;;;;;57.65;30.08;;;8.00;99.90;;;;;;5093345;28;20031;-77
2022/11/03 08:45:21;;;;;;;52.40;30.58;;;8.10;99.90;;;;;;5091950;28;20016;-77
2022/11/03 08:47:46;;;;;;;52.72;27.45;;;8.30;99.90;;;;;;5092134;28;20031;-77
2022/11/03 08:50:12;;;;;;;44.13;25.25;;;8.50;99.90;;;;;;5093024;28;20119;-77
2022/11/03 08:52:37;;;;;;;45.65;23.58;;;8.60;99.90;;;;;;5092956;28;20028;-77
2022/11/03 08:55:03;;;;;;;35.60;19.52;;;8.80;99.90;;;;;;5093105;28;20027;-77
2022/11/03 08:57:29;;;;;;;32.05;14.50;;;8.90;99.90;;;;;;5108954;28;20009;-77
2022/11/03 08:59:55;;;;;;;23.20;13.30;;;9.00;99.90;;;;;;5091823;28;20035;-77
2022/11/03 09:02:21;;;;;;;25.80;11.63;;;9.20;99.90;;;;;;5091884;28;20016;-77
2022/11/03 09:04:46;;;;;;;17.85;10.75;;;9.30;99.90;;;;;;5108728;28;20032;-77
2022/11/03 09:07:12;;;;;;;14.38;8.75;;;9.40;99.90;;;;;;5093305;28;20028;-78
2022/11/03 09:09:38;;;;;;;14.35;7.75;;;9.60;99.90;;;;;;5092990;28;20394;-77
2022/11/03 09:12:04;;;;;;;19.13;7.95;;;9.70;99.90;;;;;;5091820;28;20028;-77
2022/11/03 09:14:29;;;;;;;15.77;8.63;;;9.80;99.90;;;;;;5092962;28;20020;-78
2022/11/03 09:16:55;;;;;;;15.52;9.18;;;9.90;99.90;;;;;;5091752;28;20504;-77
2022/11/03 09:19:20;;;;;;;15.35;7.32;;;10.10;99.90;;;;;;5091491;28;20024;-78
2022/11/03 09:21:46;;;;;;;17.33;8.63;;;10.10;99.90;;;;;;5093004;28;20035;-78
2022/11/03 09:24:12;;;;;;;12.88;8.23;;;10.20;99.90;;;;;;5092910;28;20035;-77
2022/11/03 09:26:37;;;;;;;14.13;7.53;;;10.30;99.90;;;;;;5087956;28;20021;-77
2022/11/03 09:29:03;;;;;;;13.23;7.90;;;10.40;99.90;;;;;;5072603;28;20517;-77
2022/11/03 09:31:29;;;;;;;11.38;6.85;;;10.50;99.90;;;;;;5072612;28;20029;-77
2022/11/03 09:33:54;;;;;;;18.58;8.65;;;10.50;99.90;;;;;;5072480;28;20028;-77
2022/11/03 09:36:20;;;;;;;9.95;6.00;;;10.60;99.90;;;;;;5075129;28;20024;-77
2022/11/03 09:38:46;;;;;;;13.43;6.82;;;10.70;99.90;;;;;;5076278;28;20064;-77
2022/11/03 09:41:16;;;;;;;18.02;7.13;;;10.70;99.90;;;;;;5074919;28;20049;-77
2022/11/03 09:43:43;;;;;;;12.77;6.40;;;10.80;99.90;;;;;;5075060;28;20078;-77
2022/11/03 09:46:09;;;;;;;12.88;6.18;;;10.90;99.90;;;;;;5074807;28;20020;-77
2022/11/03 09:48:35;;;;;;;15.55;6.30;;;10.90;99.90;;;;;;5075904;28;20021;-78
2022/11/03 09:51:01;;;;;;;10.80;5.47;;;11.00;99.90;;;;;;5074297;28;20448;-78
2022/11/03 09:53:26;;;;;;;10.02;5.47;;;11.10;99.90;;;;;;5080037;28;20054;-78
2022/11/03 09:55:53;;;;;;;14.85;6.15;;;11.20;99.90;;;;;;5095811;28;20028;-77
2022/11/03 09:58:19;;;;;;;10.10;5.38;;;11.20;99.90;;;;;;5096135;28;20493;-78
2022/11/03 10:00:45;;;;;;;13.02;5.30;;;11.30;99.00;;;;;;5095998;28;20032;-77
2022/11/03 10:03:16;;;;;;;9.18;4.85;;;11.40;99.90;;;;;;5094811;28;20024;-78
2022/11/03 10:05:43;;;;;;;8.45;4.30;;;11.40;94.20;;;;;;5095958;28;20454;-77
2022/11/03 10:08:21;;;;;;;9.23;4.68;;;11.40;89.50;;;;;;5094534;28;20016;-77
2022/11/03 10:10:47;;;;;;;9.95;4.15;;;11.50;89.80;;;;;;5095811;28;20032;-77
2022/11/03 10:13:26;;;;;;;7.88;3.60;;;11.60;92.20;;;;;;5096032;28;20028;-77
2022/11/03 10:15:52;;;;;;;8.32;3.58;;;11.60;88.80;;;;;;5094482;28;20020;-77
2022/11/03 10:18:18;;;;;;;10.75;3.85;;;11.70;84.30;;;;;;5094521;28;20058;-77
2022/11/03 10:20:44;;;;;;;6.60;2.70;;;11.80;82.80;;;;;;5094372;28;20494;-77
2022/11/03 10:23:09;;;;;;;6.35;3.40;;;11.90;79.90;;;;;;5095764;28;20048;-77
2022/11/03 10:25:43;;;;;;;7.30;3.17;;;11.90;77.20;;;;;;5094266;28;20058;-78
2022/11/03 10:28:15;;;;;;;9.90;3.75;;;11.90;74.10;;;;;;5076355;28;20025;-77
2022/11/03 10:31:00;;;;;;;6.40;3.40;;;12.00;75.20;;;;;;5073798;28;20398;-77
2022/11/03 10:33:37;;;;;;;6.18;2.90;;;12.00;73.90;;;;;;5075383;28;20031;-77
2022/11/03 10:36:20;;;;;;;5.85;3.13;;;12.00;76.00;;;;;;5075209;28;20016;-77
2022/11/03 10:38:46;;;;;;;;;;;12.10;74.20;;;;;;5075792;28;20379;-77
2022/11/03 10:41:18;;;;;;;6.20;3.53;;;12.20;74.50;;;;;;5073797;28;19916;-77
2022/11/03 10:44:04;;;;;;;4.63;2.85;;;12.20;73.30;;;;;;5075070;28;20107;-78
2022/11/03 10:46:31;;;;;;;7.28;2.63;;;12.20;70.80;;;;;;5073410;28;20032;-77
2022/11/03 10:49:04;;;;;;;6.97;3.00;;;12.20;72.10;;;;;;5073708;28;20124;-77
2022/11/03 10:51:31;;;;;;;4.78;3.10;;;12.30;71.80;;;;;;5074847;28;20060;-77
2022/11/03 10:53:57;;;;;;;6.90;2.80;;;12.30;70.80;;;;;;5074929;28;20027;-77
2022/11/03 10:56:23;;;;;;;9.20;3.03;;;12.30;71.20;;;;;;5074824;28;20024;-77
2022/11/03 10:58:49;;;;;;;7.90;3.75;;;12.30;70.60;;;;;;5074505;28;20024;-78
2022/11/03 11:01:15;;;;;;;4.72;2.55;;;12.40;70.70;;;;;;5073290;28;20115;-77
2022/11/03 11:03:42;;;;;;;4.72;2.47;;;12.40;71.90;;;;;;5090373;28;20111;-77
2022/11/03 11:06:24;;;;;;;3.08;1.98;;;12.40;70.60;;;;;;5074590;28;20016;-77
2022/11/03 11:08:53;;;;;;;2.30;2.00;;;12.40;68.20;;;;;;5074527;28;20025;-77
2022/11/03 11:11:20;;;;;;;4.53;2.08;;;12.50;67.80;;;;;;5090054;28;20033;-77
2022/11/03 11:14:41;;;;;;;5.63;2.40;;;12.50;68.30;;;;;;5074485;28;20047;-78
2022/11/03 11:17:36;;;;;;;3.55;2.10;;;12.50;66.20;;;;;;5052054;28;20096;-77
2022/11/03 11:20:20;;;;;;;5.50;2.00;;;12.60;64.80;;;;;;5052859;28;20037;-77
2022/11/03 11:22:46;;;;;;;6.25;2.30;;;12.60;64.60;;;;;;5054189;28;20486;-77
2022/11/03 11:25:12;;;;;;;6.57;2.33;;;12.60;65.40;;;;;;5052484;28;20032;-78
2022/11/03 11:27:38;;;;;;;4.28;2.08;;;12.70;66.70;;;;;;5092195;28;20028;-78
2022/11/03 11:30:06;;;;;;;5.25;2.50;;;12.70;66.60;;;;;;5088436;28;20045;-78
2022/11/03 11:32:41;;;;;;;4.82;2.35;;;12.70;62.60;;;;;;5093285;28;20104;-78
2022/11/03 11:35:08;;;;;;;5.22;1.90;;;12.70;63.50;;;;;;5084599;28;20052;-77
2022/11/03 11:37:35;;;;;;;4.32;1.80;;;12.80;65.00;;;;;;5091882;28;20481;-77
2022/11/03 11:40:12;;;;;;;3.50;2.70;;;12.80;62.80;;;;;;5069927;28;20045;-78
2022/11/03 11:43:00;;;;;;;6.45;2.47;;;12.80;63.90;;;;;;5069068;28;20039;-78
2022/11/03 11:46:03;;;;;;;4.88;2.42;;;12.90;65.10;;;;;;5068269;28;20052;-78
2022/11/03 11:48:28;;;;;;;3.72;2.53;;;12.80;62.60;;;;;;5072807;28;20028;-77
2022/11/03 11:50:57;;;;;;;4.82;2.38;;;12.90;65.40;;;;;;5082851;28;20043;-78
2022/11/03 11:53:24;;;;;;;3.97;2.15;;;12.90;64.40;;;;;;5083580;28;20028;-80
2022/11/03 11:55:57;;;;;;;4.82;1.88;;;12.90;63.30;;;;;;5071952;28;20123;-80
2022/11/03 11:58:44;;;;;;;7.78;2.20;;;12.90;62.00;;;;;;5071868;28;20077;-80
2022/11/03 12:01:31;;;;;;;1.90;1.70;;;12.90;63.00;;;;;;5070308;28;20382;-78
2022/11/03 12:04:18;;;;;;;7.05;2.28;;;12.90;60.90;;;;;;5069855;28;20036;-77
2022/11/03 12:06:44;;;;;;;5.15;2.15;;;12.90;60.90;;;;;;5084587;28;20041;-79
2022/11/03 12:09:17;;;;;;;6.22;2.10;;;12.90;60.20;;;;;;5073539;28;20028;-80
2022/11/03 12:11:52;;;;;;;5.22;1.80;;;12.90;61.60;;;;;;5081591;28;20111;-79
2022/11/03 12:14:24;;;;;;;7.13;2.63;;;12.90;59.60;;;;;;5078791;28;20024;-80
2022/11/03 12:16:50;;;;;;;6.45;2.30;;;12.90;61.70;;;;;;5078825;28;20056;-77
2022/11/03 12:19:34;;;;;;;5.38;2.38;;;12.90;61.40;;;;;;5090574;28;20028;-79
2022/11/03 12:22:01;;;;;;;5.88;2.17;;;12.90;63.50;;;;;;5093401;28;20024;-79
2022/11/03 12:24:29;;;;;;;8.85;2.72;;;12.90;61.70;;;;;;5068780;28;20482;-78
2022/11/03 12:26:55;;;;;;;6.97;2.65;;;12.90;64.10;;;;;;5069666;28;20107;-79
2022/11/03 12:29:21;;;;;;;5.07;2.97;;;12.90;63.40;;;;;;5077815;28;20104;-79
2022/11/03 12:31:47;;;;;;;4.90;2.45;;;12.90;65.70;;;;;;5081634;28;20041;-80
2022/11/03 12:34:13;;;;;;;6.63;3.00;;;12.90;66.10;;;;;;5082833;28;20030;-78
2022/11/03 12:36:39;;;;;;;5.88;2.92;;;12.80;66.70;;;;;;5069855;28;20033;-78
2022/11/03 12:39:05;;;;;;;4.32;2.80;;;12.80;67.30;;;;;;5077218;28;20031;-80
2022/11/03 12:41:30;;;;;;;9.02;3.30;;;12.70;68.00;;;;;;5074733;28;20395;-79
2022/11/03 12:43:56;;;;;;;5.43;3.33;;;12.70;67.90;;;;;;5080993;28;20056;-79
2022/11/03 12:46:22;;;;;;;6.13;3.00;;;12.70;68.80;;;;;;5077253;28;20029;-77
2022/11/03 12:48:48;;;;;;;6.50;3.10;;;12.70;68.80;;;;;;5082304;28;20385;-77
2022/11/03 12:51:15;;;;;;;9.48;4.43;;;12.70;69.80;;;;;;5077426;28;20097;-77
2022/11/03 12:53:41;;;;;;;10.38;4.05;;;12.70;70.70;;;;;;5081506;28;20020;-76
2022/11/03 12:56:08;;;;;;;6.65;4.00;;;12.60;70.10;;;;;;5082451;28;20430;-77
2022/11/03 12:58:34;;;;;;;9.90;3.75;;;12.60;70.40;;;;;;5082684;28;20486;-77
2022/11/03 13:01:00;;;;;;;6.97;3.97;;;12.60;71.00;;;;;;5081541;28;20040;-80
2022/11/03 13:03:26;;;;;;;9.32;4.57;;;12.60;71.60;;;;;;5081679;28;20027;-79
2022/11/03 13:05:52;;;;;;;11.18;4.70;;;12.60;71.20;;;;;;5080549;28;20036;-79
2022/11/03 13:08:18;;;;;;;12.88;4.60;;;12.60;71.70;;;;;;5080492;28;20016;-77
2022/11/03 13:10:43;;;;;;;9.23;4.60;;;12.50;72.00;;;;;;5084737;28;20124;-77
2022/11/03 13:13:09;;;;;;;11.63;5.07;;;12.50;71.70;;;;;;5083933;28;20074;-77